sensor_id;sensor_type;location;lat;lon;timestamp;temperature;humidity
19256;DHT22;9762;52.490;13.410;2023-12-04T00:00:34;4.20;88.90
19256;DHT22;9762;52.490;13.410;2023-12-04T00:02:59;4.20;89.10
19256;DHT22;9762;52.490;13.410;2023-12-04T00:05:25;4.20;88.90
19256;DHT22;9762;52.490;13.410;2023-12-04T00:07:51;4.20;89.10
19256;DHT22;9762;52.490;13.410;2023-12-04T00:10:16;4.20;89.10
19256;DHT22;9762;52.490;13.410;2023-12-04T00:12:42;4.20;88.80
19256;DHT22;9762;52.490;13.410;2023-12-04T00:15:08;4.20;88.80
19256;DHT22;9762;52.490;13.410;2023-12-04T00:17:34;4.20;88.80
19256;DHT22;9762;52.490;13.410;2023-12-04T00:19:59;4.20;88.60
19256;DHT22;9762;52.490;13.410;2023-12-04T00:22:25;4.20;88.50
19256;DHT22;9762;52.490;13.410;2023-12-04T00:24:51;4.20;88.80
19256;DHT22;9762;52.490;13.410;2023-12-04T00:27:16;4.20;89.10
19256;DHT22;9762;52.490;13.410;2023-12-04T00:29:42;4.20;89.10
19256;DHT22;9762;52.490;13.410;2023-12-04T00:32:07;4.20;89.10
19256;DHT22;9762;52.490;13.410;2023-12-04T00:34:33;4.20;89.20
19256;DHT22;9762;52.490;13.410;2023-12-04T00:36:58;4.20;89.20
19256;DHT22;9762;52.490;13.410;2023-12-04T00:39:24;4.20;89.20
19256;DHT22;9762;52.490;13.410;2023-12-04T00:41:50;4.20;89.40
19256;DHT22;9762;52.490;13.410;2023-12-04T00:44:15;4.20;89.10
19256;DHT22;9762;52.490;13.410;2023-12-04T00:46:41;4.20;88.90
19256;DHT22;9762;52.490;13.410;2023-12-04T00:49:06;4.20;89.00
19256;DHT22;9762;52.490;13.410;2023-12-04T00:51:38;4.20;88.70
19256;DHT22;9762;52.490;13.410;2023-12-04T00:54:04;4.20;88.80
19256;DHT22;9762;52.490;13.410;2023-12-04T00:56:30;4.20;88.90
19256;DHT22;9762;52.490;13.410;2023-12-04T00:58:55;4.20;88.60
19256;DHT22;9762;52.490;13.410;2023-12-04T01:01:21;4.10;88.20
19256;DHT22;9762;52.490;13.410;2023-12-04T01:03:46;4.10;88.20
19256;DHT22;9762;52.490;13.410;2023-12-04T01:06:22;4.10;88.40
19256;DHT22;9762;52.490;13.410;2023-12-04T01:08:48;4.00;88.70
19256;DHT22;9762;52.490;13.410;2023-12-04T01:11:15;4.00;88.80
19256;DHT22;9762;52.490;13.410;2023-12-04T01:13:41;4.00;89.30
19256;DHT22;9762;52.490;13.410;2023-12-04T01:16:07;4.00;89.50
19256;DHT22;9762;52.490;13.410;2023-12-04T01:18:33;4.00;88.90
19256;DHT22;9762;52.490;13.410;2023-12-04T01:20:59;4.00;88.90
19256;DHT22;9762;52.490;13.410;2023-12-04T01:23:24;4.00;88.80
19256;DHT22;9762;52.490;13.410;2023-12-04T01:25:50;4.00;88.90
19256;DHT22;9762;52.490;13.410;2023-12-04T01:28:16;4.00;88.50
19256;DHT22;9762;52.490;13.410;2023-12-04T01:30:41;4.00;88.80
19256;DHT22;9762;52.490;13.410;2023-12-04T01:33:07;4.00;89.10
19256;DHT22;9762;52.490;13.410;2023-12-04T01:35:33;4.00;89.10
19256;DHT22;9762;52.490;13.410;2023-12-04T01:37:59;4.00;88.80
19256;DHT22;9762;52.490;13.410;2023-12-04T01:40:26;4.00;89.20
19256;DHT22;9762;52.490;13.410;2023-12-04T01:42:52;4.00;89.10
19256;DHT22;9762;52.490;13.410;2023-12-04T01:45:17;3.90;89.20
19256;DHT22;9762;52.490;13.410;2023-12-04T01:47:44;3.90;89.20
19256;DHT22;9762;52.490;13.410;2023-12-04T01:50:12;3.90;89.50
19256;DHT22;9762;52.490;13.410;2023-12-04T01:52:39;3.90;89.80
19256;DHT22;9762;52.490;13.410;2023-12-04T01:55:06;3.90;90.00
19256;DHT22;9762;52.490;13.410;2023-12-04T01:57:34;3.90;90.10
19256;DHT22;9762;52.490;13.410;2023-12-04T02:00:00;3.90;90.00
19256;DHT22;9762;52.490;13.410;2023-12-04T02:02:26;3.90;90.10
19256;DHT22;9762;52.490;13.410;2023-12-04T02:04:55;3.90;90.10
19256;DHT22;9762;52.490;13.410;2023-12-04T02:07:23;4.00;90.10
19256;DHT22;9762;52.490;13.410;2023-12-04T02:09:49;4.00;89.80
19256;DHT22;9762;52.490;13.410;2023-12-04T02:12:15;3.90;90.00
19256;DHT22;9762;52.490;13.410;2023-12-04T02:14:40;4.00;89.80
19256;DHT22;9762;52.490;13.410;2023-12-04T02:17:06;3.90;89.70
19256;DHT22;9762;52.490;13.410;2023-12-04T02:19:33;3.90;89.50
19256;DHT22;9762;52.490;13.410;2023-12-04T02:21:59;4.00;89.50
19256;DHT22;9762;52.490;13.410;2023-12-04T02:24:25;3.90;89.40
19256;DHT22;9762;52.490;13.410;2023-12-04T02:26:57;3.90;89.30
19256;DHT22;9762;52.490;13.410;2023-12-04T02:29:29;4.00;89.80
19256;DHT22;9762;52.490;13.410;2023-12-04T02:31:57;3.90;89.30
19256;DHT22;9762;52.490;13.410;2023-12-04T02:34:24;3.90;89.10
19256;DHT22;9762;52.490;13.410;2023-12-04T02:36:50;3.90;88.90
19256;DHT22;9762;52.490;13.410;2023-12-04T02:39:17;3.90;89.30
19256;DHT22;9762;52.490;13.410;2023-12-04T02:41:42;3.90;89.70
19256;DHT22;9762;52.490;13.410;2023-12-04T02:44:08;3.90;89.30
19256;DHT22;9762;52.490;13.410;2023-12-04T02:46:34;4.00;89.40
19256;DHT22;9762;52.490;13.410;2023-12-04T02:48:59;3.90;89.40
19256;DHT22;9762;52.490;13.410;2023-12-04T02:51:25;3.90;89.40
19256;DHT22;9762;52.490;13.410;2023-12-04T02:53:52;3.90;88.60
19256;DHT22;9762;52.490;13.410;2023-12-04T02:56:17;3.90;88.50
19256;DHT22;9762;52.490;13.410;2023-12-04T02:58:43;3.80;88.70
19256;DHT22;9762;52.490;13.410;2023-12-04T03:01:08;3.80;88.60
19256;DHT22;9762;52.490;13.410;2023-12-04T03:03:34;3.70;88.40
19256;DHT22;9762;52.490;13.410;2023-12-04T03:06:00;3.70;88.60
19256;DHT22;9762;52.490;13.410;2023-12-04T03:08:25;3.70;88.80
19256;DHT22;9762;52.490;13.410;2023-12-04T03:10:51;3.70;89.10
19256;DHT22;9762;52.490;13.410;2023-12-04T03:13:17;3.70;89.30
19256;DHT22;9762;52.490;13.410;2023-12-04T03:15:42;3.70;89.60
19256;DHT22;9762;52.490;13.410;2023-12-04T03:18:08;3.70;89.40
19256;DHT22;9762;52.490;13.410;2023-12-04T03:20:34;3.70;89.50
19256;DHT22;9762;52.490;13.410;2023-12-04T03:22:59;3.70;89.30
19256;DHT22;9762;52.490;13.410;2023-12-04T03:25:25;3.70;89.30
19256;DHT22;9762;52.490;13.410;2023-12-04T03:27:50;3.80;89.50
19256;DHT22;9762;52.490;13.410;2023-12-04T03:30:16;3.80;89.60
19256;DHT22;9762;52.490;13.410;2023-12-04T03:32:42;3.80;89.30
19256;DHT22;9762;52.490;13.410;2023-12-04T03:35:08;3.70;89.20
19256;DHT22;9762;52.490;13.410;2023-12-04T03:37:33;3.70;90.00
19256;DHT22;9762;52.490;13.410;2023-12-04T03:39:59;3.60;89.40
19256;DHT22;9762;52.490;13.410;2023-12-04T03:42:25;3.60;89.60
19256;DHT22;9762;52.490;13.410;2023-12-04T03:44:50;3.70;90.00
19256;DHT22;9762;52.490;13.410;2023-12-04T03:47:16;3.70;90.10
19256;DHT22;9762;52.490;13.410;2023-12-04T03:49:41;3.70;90.10
19256;DHT22;9762;52.490;13.410;2023-12-04T03:52:07;3.70;89.90
19256;DHT22;9762;52.490;13.410;2023-12-04T03:54:33;3.70;89.70
19256;DHT22;9762;52.490;13.410;2023-12-04T03:56:58;3.70;89.70
19256;DHT22;9762;52.490;13.410;2023-12-04T03:59:24;3.70;90.20
19256;DHT22;9762;52.490;13.410;2023-12-04T04:01:49;3.70;89.90
19256;DHT22;9762;52.490;13.410;2023-12-04T04:04:15;3.80;90.30
19256;DHT22;9762;52.490;13.410;2023-12-04T04:06:41;3.80;90.00
19256;DHT22;9762;52.490;13.410;2023-12-04T04:09:06;3.90;90.40
19256;DHT22;9762;52.490;13.410;2023-12-04T04:11:32;3.90;89.70
19256;DHT22;9762;52.490;13.410;2023-12-04T04:13:58;3.90;89.40
19256;DHT22;9762;52.490;13.410;2023-12-04T04:16:23;3.80;89.70
19256;DHT22;9762;52.490;13.410;2023-12-04T04:18:49;3.90;89.80
19256;DHT22;9762;52.490;13.410;2023-12-04T04:21:14;3.90;89.80
19256;DHT22;9762;52.490;13.410;2023-12-04T04:23:40;3.90;89.30
19256;DHT22;9762;52.490;13.410;2023-12-04T04:26:06;3.90;89.50
19256;DHT22;9762;52.490;13.410;2023-12-04T04:28:31;3.90;88.70
19256;DHT22;9762;52.490;13.410;2023-12-04T04:30:58;3.90;88.20
19256;DHT22;9762;52.490;13.410;2023-12-04T04:33:23;3.90;88.60
19256;DHT22;9762;52.490;13.410;2023-12-04T04:35:49;3.90;88.10
19256;DHT22;9762;52.490;13.410;2023-12-04T04:38:15;3.80;88.10
19256;DHT22;9762;52.490;13.410;2023-12-04T04:40:40;3.90;88.00
19256;DHT22;9762;52.490;13.410;2023-12-04T04:43:10;3.80;88.00
19256;DHT22;9762;52.490;13.410;2023-12-04T04:45:35;3.90;88.10
19256;DHT22;9762;52.490;13.410;2023-12-04T04:48:01;3.90;87.90
19256;DHT22;9762;52.490;13.410;2023-12-04T04:50:27;3.90;88.20
19256;DHT22;9762;52.490;13.410;2023-12-04T04:52:52;3.90;88.20
19256;DHT22;9762;52.490;13.410;2023-12-04T04:55:18;3.90;88.20
19256;DHT22;9762;52.490;13.410;2023-12-04T04:57:44;3.90;87.80
19256;DHT22;9762;52.490;13.410;2023-12-04T05:00:10;3.90;88.20
19256;DHT22;9762;52.490;13.410;2023-12-04T05:02:35;3.90;88.10
19256;DHT22;9762;52.490;13.410;2023-12-04T05:05:03;3.90;87.90
19256;DHT22;9762;52.490;13.410;2023-12-04T05:07:30;4.00;88.10
19256;DHT22;9762;52.490;13.410;2023-12-04T05:09:55;4.00;87.80
19256;DHT22;9762;52.490;13.410;2023-12-04T05:12:21;3.90;87.30
19256;DHT22;9762;52.490;13.410;2023-12-04T05:14:46;3.90;87.30
19256;DHT22;9762;52.490;13.410;2023-12-04T05:17:12;3.90;87.60
19256;DHT22;9762;52.490;13.410;2023-12-04T05:19:37;3.90;87.60
19256;DHT22;9762;52.490;13.410;2023-12-04T05:22:03;3.90;87.60
19256;DHT22;9762;52.490;13.410;2023-12-04T05:24:29;3.90;87.30
19256;DHT22;9762;52.490;13.410;2023-12-04T05:26:54;3.90;88.00
19256;DHT22;9762;52.490;13.410;2023-12-04T05:29:20;3.90;87.60
19256;DHT22;9762;52.490;13.410;2023-12-04T05:31:46;3.80;88.00
19256;DHT22;9762;52.490;13.410;2023-12-04T05:34:12;3.90;88.50
19256;DHT22;9762;52.490;13.410;2023-12-04T05:36:38;3.90;88.70
19256;DHT22;9762;52.490;13.410;2023-12-04T05:39:04;3.90;88.20
19256;DHT22;9762;52.490;13.410;2023-12-04T05:41:30;3.90;88.10
19256;DHT22;9762;52.490;13.410;2023-12-04T05:43:56;3.90;88.30
19256;DHT22;9762;52.490;13.410;2023-12-04T05:46:21;4.00;88.50
19256;DHT22;9762;52.490;13.410;2023-12-04T05:48:47;4.00;88.10
19256;DHT22;9762;52.490;13.410;2023-12-04T05:51:13;4.00;87.90
19256;DHT22;9762;52.490;13.410;2023-12-04T05:53:40;4.00;88.20
19256;DHT22;9762;52.490;13.410;2023-12-04T05:56:06;4.00;88.00
19256;DHT22;9762;52.490;13.410;2023-12-04T05:58:33;4.00;87.90
19256;DHT22;9762;52.490;13.410;2023-12-04T06:00:58;4.00;88.00
19256;DHT22;9762;52.490;13.410;2023-12-04T06:03:24;4.00;87.90
19256;DHT22;9762;52.490;13.410;2023-12-04T06:05:49;4.00;87.70
19256;DHT22;9762;52.490;13.410;2023-12-04T06:08:15;4.00;88.40
19256;DHT22;9762;52.490;13.410;2023-12-04T06:10:41;4.10;88.80
19256;DHT22;9762;52.490;13.410;2023-12-04T06:13:06;4.10;88.80
19256;DHT22;9762;52.490;13.410;2023-12-04T06:15:32;4.10;88.40
19256;DHT22;9762;52.490;13.410;2023-12-04T06:17:57;4.00;89.10
19256;DHT22;9762;52.490;13.410;2023-12-04T06:20:23;4.10;89.60
19256;DHT22;9762;52.490;13.410;2023-12-04T06:22:49;4.10;89.40
19256;DHT22;9762;52.490;13.410;2023-12-04T06:25:15;4.10;89.20
19256;DHT22;9762;52.490;13.410;2023-12-04T06:27:41;4.10;89.20
19256;DHT22;9762;52.490;13.410;2023-12-04T06:30:07;4.00;90.10
19256;DHT22;9762;52.490;13.410;2023-12-04T06:32:33;4.10;90.10
19256;DHT22;9762;52.490;13.410;2023-12-04T06:34:59;4.10;89.60
19256;DHT22;9762;52.490;13.410;2023-12-04T06:37:25;4.10;89.90
19256;DHT22;9762;52.490;13.410;2023-12-04T06:39:52;4.10;89.50
19256;DHT22;9762;52.490;13.410;2023-12-04T06:42:19;4.10;89.10
19256;DHT22;9762;52.490;13.410;2023-12-04T06:44:45;4.20;89.30
19256;DHT22;9762;52.490;13.410;2023-12-04T06:53:55;4.20;89.30
19256;DHT22;9762;52.490;13.410;2023-12-04T06:56:20;4.30;89.20
19256;DHT22;9762;52.490;13.410;2023-12-04T06:58:46;4.30;89.40
19256;DHT22;9762;52.490;13.410;2023-12-04T07:01:11;4.30;90.00
19256;DHT22;9762;52.490;13.410;2023-12-04T07:03:37;4.30;89.80
19256;DHT22;9762;52.490;13.410;2023-12-04T07:06:03;4.40;89.90
19256;DHT22;9762;52.490;13.410;2023-12-04T07:08:29;4.40;90.00
19256;DHT22;9762;52.490;13.410;2023-12-04T07:10:55;4.40;90.00
19256;DHT22;9762;52.490;13.410;2023-12-04T07:13:21;4.40;89.80
19256;DHT22;9762;52.490;13.410;2023-12-04T07:15:46;4.40;89.70
19256;DHT22;9762;52.490;13.410;2023-12-04T07:18:12;4.30;88.90
19256;DHT22;9762;52.490;13.410;2023-12-04T07:20:37;4.40;89.40
19256;DHT22;9762;52.490;13.410;2023-12-04T07:23:03;4.40;89.60
19256;DHT22;9762;52.490;13.410;2023-12-04T07:25:29;4.40;90.00
19256;DHT22;9762;52.490;13.410;2023-12-04T07:27:54;4.50;90.00
19256;DHT22;9762;52.490;13.410;2023-12-04T07:30:20;4.50;90.10
19256;DHT22;9762;52.490;13.410;2023-12-04T07:32:46;4.60;89.50
19256;DHT22;9762;52.490;13.410;2023-12-04T07:35:12;4.70;90.40
19256;DHT22;9762;52.490;13.410;2023-12-04T07:37:38;4.70;90.30
19256;DHT22;9762;52.490;13.410;2023-12-04T07:40:04;4.70;90.30
19256;DHT22;9762;52.490;13.410;2023-12-04T07:42:31;4.80;89.70
19256;DHT22;9762;52.490;13.410;2023-12-04T07:44:57;4.90;89.00
19256;DHT22;9762;52.490;13.410;2023-12-04T07:47:23;5.00;88.20
19256;DHT22;9762;52.490;13.410;2023-12-04T07:49:49;5.10;88.40
19256;DHT22;9762;52.490;13.410;2023-12-04T07:52:14;5.10;87.00
19256;DHT22;9762;52.490;13.410;2023-12-04T07:54:40;5.20;86.40
19256;DHT22;9762;52.490;13.410;2023-12-04T07:57:06;5.20;86.40
19256;DHT22;9762;52.490;13.410;2023-12-04T07:59:31;5.20;85.80
19256;DHT22;9762;52.490;13.410;2023-12-04T08:01:57;5.30;86.30
19256;DHT22;9762;52.490;13.410;2023-12-04T08:04:22;5.30;86.50
19256;DHT22;9762;52.490;13.410;2023-12-04T08:06:48;5.30;85.80
19256;DHT22;9762;52.490;13.410;2023-12-04T08:09:15;5.30;86.50
19256;DHT22;9762;52.490;13.410;2023-12-04T08:11:42;5.40;86.10
19256;DHT22;9762;52.490;13.410;2023-12-04T08:14:07;5.50;86.30
19256;DHT22;9762;52.490;13.410;2023-12-04T08:16:33;5.50;85.90
19256;DHT22;9762;52.490;13.410;2023-12-04T08:18:59;5.60;86.20
19256;DHT22;9762;52.490;13.410;2023-12-04T08:21:25;5.60;85.40
19256;DHT22;9762;52.490;13.410;2023-12-04T08:23:50;5.60;85.40
19256;DHT22;9762;52.490;13.410;2023-12-04T08:26:23;5.70;85.70
19256;DHT22;9762;52.490;13.410;2023-12-04T08:28:50;5.70;85.20
19256;DHT22;9762;52.490;13.410;2023-12-04T08:31:16;5.80;84.40
19256;DHT22;9762;52.490;13.410;2023-12-04T08:33:42;5.80;84.30
19256;DHT22;9762;52.490;13.410;2023-12-04T08:36:08;5.80;84.80
19256;DHT22;9762;52.490;13.410;2023-12-04T08:38:34;5.80;85.30
19256;DHT22;9762;52.490;13.410;2023-12-04T08:40:59;5.90;85.40
19256;DHT22;9762;52.490;13.410;2023-12-04T08:43:25;5.90;85.10
19256;DHT22;9762;52.490;13.410;2023-12-04T08:45:51;6.00;84.20
19256;DHT22;9762;52.490;13.410;2023-12-04T08:48:16;6.00;84.30
19256;DHT22;9762;52.490;13.410;2023-12-04T08:50:42;6.10;84.40
19256;DHT22;9762;52.490;13.410;2023-12-04T08:53:08;6.10;84.60
19256;DHT22;9762;52.490;13.410;2023-12-04T08:55:33;6.10;84.10
19256;DHT22;9762;52.490;13.410;2023-12-04T08:57:59;6.20;83.20
19256;DHT22;9762;52.490;13.410;2023-12-04T09:00:25;6.20;83.00
19256;DHT22;9762;52.490;13.410;2023-12-04T09:02:51;6.20;82.60
19256;DHT22;9762;52.490;13.410;2023-12-04T09:05:16;6.20;82.80
19256;DHT22;9762;52.490;13.410;2023-12-04T09:07:42;6.30;82.80
19256;DHT22;9762;52.490;13.410;2023-12-04T09:10:08;6.30;83.10
19256;DHT22;9762;52.490;13.410;2023-12-04T09:12:34;6.30;83.30
19256;DHT22;9762;52.490;13.410;2023-12-04T09:15:02;6.40;83.20
19256;DHT22;9762;52.490;13.410;2023-12-04T09:17:28;6.40;82.70
19256;DHT22;9762;52.490;13.410;2023-12-04T09:19:54;6.40;83.10
19256;DHT22;9762;52.490;13.410;2023-12-04T09:22:19;6.40;82.90
19256;DHT22;9762;52.490;13.410;2023-12-04T09:24:45;6.40;82.10
19256;DHT22;9762;52.490;13.410;2023-12-04T09:27:11;6.40;82.20
19256;DHT22;9762;52.490;13.410;2023-12-04T09:29:36;6.40;82.80
19256;DHT22;9762;52.490;13.410;2023-12-04T09:32:03;6.40;82.80
19256;DHT22;9762;52.490;13.410;2023-12-04T09:34:28;6.40;82.20
19256;DHT22;9762;52.490;13.410;2023-12-04T09:36:54;6.30;81.80
19256;DHT22;9762;52.490;13.410;2023-12-04T09:39:20;6.30;82.30
19256;DHT22;9762;52.490;13.410;2023-12-04T09:41:45;6.40;82.80
19256;DHT22;9762;52.490;13.410;2023-12-04T09:44:12;6.40;82.80
19256;DHT22;9762;52.490;13.410;2023-12-04T09:46:38;6.40;81.90
19256;DHT22;9762;52.490;13.410;2023-12-04T09:49:04;6.40;82.00
19256;DHT22;9762;52.490;13.410;2023-12-04T09:51:30;6.40;82.30
19256;DHT22;9762;52.490;13.410;2023-12-04T09:53:57;6.50;82.10
19256;DHT22;9762;52.490;13.410;2023-12-04T09:56:25;6.50;82.00
19256;DHT22;9762;52.490;13.410;2023-12-04T09:58:55;6.50;81.60
19256;DHT22;9762;52.490;13.410;2023-12-04T10:01:23;6.50;81.80
19256;DHT22;9762;52.490;13.410;2023-12-04T10:03:50;6.50;82.10
19256;DHT22;9762;52.490;13.410;2023-12-04T10:06:16;6.50;81.80
19256;DHT22;9762;52.490;13.410;2023-12-04T10:08:45;6.40;81.90
19256;DHT22;9762;52.490;13.410;2023-12-04T10:11:13;6.40;81.30
19256;DHT22;9762;52.490;13.410;2023-12-04T10:13:42;6.40;81.70
19256;DHT22;9762;52.490;13.410;2023-12-04T10:16:08;6.40;81.60
19256;DHT22;9762;52.490;13.410;2023-12-04T10:18:33;6.40;80.90
19256;DHT22;9762;52.490;13.410;2023-12-04T10:21:00;6.40;81.10
19256;DHT22;9762;52.490;13.410;2023-12-04T10:23:42;6.40;81.50
19256;DHT22;9762;52.490;13.410;2023-12-04T10:26:08;6.40;81.30
19256;DHT22;9762;52.490;13.410;2023-12-04T10:28:34;6.40;81.00
19256;DHT22;9762;52.490;13.410;2023-12-04T10:31:00;6.40;80.90
19256;DHT22;9762;52.490;13.410;2023-12-04T10:33:29;6.40;80.70
19256;DHT22;9762;52.490;13.410;2023-12-04T10:35:56;6.40;80.90
19256;DHT22;9762;52.490;13.410;2023-12-04T10:38:21;6.30;80.50
19256;DHT22;9762;52.490;13.410;2023-12-04T10:40:47;6.20;81.00
19256;DHT22;9762;52.490;13.410;2023-12-04T10:43:17;6.20;81.40
19256;DHT22;9762;52.490;13.410;2023-12-04T10:45:44;6.30;81.40
19256;DHT22;9762;52.490;13.410;2023-12-04T10:48:13;6.20;81.00
19256;DHT22;9762;52.490;13.410;2023-12-04T10:50:41;6.20;80.90
19256;DHT22;9762;52.490;13.410;2023-12-04T10:53:11;6.30;81.70
19256;DHT22;9762;52.490;13.410;2023-12-04T10:55:38;6.50;81.60
19256;DHT22;9762;52.490;13.410;2023-12-04T10:58:08;6.50;81.00
19256;DHT22;9762;52.490;13.410;2023-12-04T11:00:37;6.40;80.30
19256;DHT22;9762;52.490;13.410;2023-12-04T11:03:07;6.40;80.70
19256;DHT22;9762;52.490;13.410;2023-12-04T11:05:39;6.50;80.70
19256;DHT22;9762;52.490;13.410;2023-12-04T11:08:16;6.50;80.60
19256;DHT22;9762;52.490;13.410;2023-12-04T11:10:50;6.50;80.80
19256;DHT22;9762;52.490;13.410;2023-12-04T11:13:23;6.50;80.30
19256;DHT22;9762;52.490;13.410;2023-12-04T11:15:52;6.40;81.30
19256;DHT22;9762;52.490;13.410;2023-12-04T11:18:23;6.50;81.20
19256;DHT22;9762;52.490;13.410;2023-12-04T11:21:06;6.60;81.40
19256;DHT22;9762;52.490;13.410;2023-12-04T11:23:33;6.60;81.30
19256;DHT22;9762;52.490;13.410;2023-12-04T11:26:00;6.70;80.90
19256;DHT22;9762;52.490;13.410;2023-12-04T11:28:27;6.70;80.60
19256;DHT22;9762;52.490;13.410;2023-12-04T11:30:53;6.80;81.00
19256;DHT22;9762;52.490;13.410;2023-12-04T11:33:20;6.80;80.40
19256;DHT22;9762;52.490;13.410;2023-12-04T11:35:46;6.90;80.80
19256;DHT22;9762;52.490;13.410;2023-12-04T11:38:14;6.80;80.20
19256;DHT22;9762;52.490;13.410;2023-12-04T11:40:41;6.90;80.70
19256;DHT22;9762;52.490;13.410;2023-12-04T11:43:25;6.90;80.50
19256;DHT22;9762;52.490;13.410;2023-12-04T11:45:51;6.90;80.10
19256;DHT22;9762;52.490;13.410;2023-12-04T11:48:16;6.90;80.40
19256;DHT22;9762;52.490;13.410;2023-12-04T11:50:47;6.90;80.80
19256;DHT22;9762;52.490;13.410;2023-12-04T11:53:13;7.00;81.00
19256;DHT22;9762;52.490;13.410;2023-12-04T11:55:40;7.10;81.00
19256;DHT22;9762;52.490;13.410;2023-12-04T11:58:11;7.10;80.40
19256;DHT22;9762;52.490;13.410;2023-12-04T12:00:37;7.10;79.60
19256;DHT22;9762;52.490;13.410;2023-12-04T12:03:07;7.20;80.10
19256;DHT22;9762;52.490;13.410;2023-12-04T12:05:36;7.10;79.60
19256;DHT22;9762;52.490;13.410;2023-12-04T12:08:04;7.20;79.80
19256;DHT22;9762;52.490;13.410;2023-12-04T12:10:30;7.00;79.20
19256;DHT22;9762;52.490;13.410;2023-12-04T12:12:57;7.10;79.80
19256;DHT22;9762;52.490;13.410;2023-12-04T12:15:23;7.10;80.10
19256;DHT22;9762;52.490;13.410;2023-12-04T12:17:50;7.20;80.80
19256;DHT22;9762;52.490;13.410;2023-12-04T12:20:16;7.20;79.80
19256;DHT22;9762;52.490;13.410;2023-12-04T12:22:42;7.20;79.70
19256;DHT22;9762;52.490;13.410;2023-12-04T12:25:11;7.20;79.30
19256;DHT22;9762;52.490;13.410;2023-12-04T12:27:38;7.20;79.90
19256;DHT22;9762;52.490;13.410;2023-12-04T12:30:04;7.30;79.60
19256;DHT22;9762;52.490;13.410;2023-12-04T12:32:32;7.30;79.60
19256;DHT22;9762;52.490;13.410;2023-12-04T12:34:58;7.30;79.60
19256;DHT22;9762;52.490;13.410;2023-12-04T12:37:24;7.30;79.50
19256;DHT22;9762;52.490;13.410;2023-12-04T12:39:49;7.30;79.60
19256;DHT22;9762;52.490;13.410;2023-12-04T12:42:25;7.40;80.10
19256;DHT22;9762;52.490;13.410;2023-12-04T12:44:52;7.40;79.40
19256;DHT22;9762;52.490;13.410;2023-12-04T12:47:18;7.40;79.60
19256;DHT22;9762;52.490;13.410;2023-12-04T12:49:44;7.40;79.90
19256;DHT22;9762;52.490;13.410;2023-12-04T12:52:10;7.40;80.30
19256;DHT22;9762;52.490;13.410;2023-12-04T12:54:37;7.50;79.90
19256;DHT22;9762;52.490;13.410;2023-12-04T12:57:03;7.40;79.50
19256;DHT22;9762;52.490;13.410;2023-12-04T12:59:29;7.20;79.70
19256;DHT22;9762;52.490;13.410;2023-12-04T13:01:55;7.20;80.30
19256;DHT22;9762;52.490;13.410;2023-12-04T13:04:22;7.30;80.90
19256;DHT22;9762;52.490;13.410;2023-12-04T13:06:48;7.30;79.80
19256;DHT22;9762;52.490;13.410;2023-12-04T13:09:14;7.30;79.90
19256;DHT22;9762;52.490;13.410;2023-12-04T13:11:44;7.40;80.80
19256;DHT22;9762;52.490;13.410;2023-12-04T13:14:10;7.40;80.20
19256;DHT22;9762;52.490;13.410;2023-12-04T13:16:36;7.40;80.20
19256;DHT22;9762;52.490;13.410;2023-12-04T13:19:01;7.40;79.90
19256;DHT22;9762;52.490;13.410;2023-12-04T13:21:27;7.40;79.90
19256;DHT22;9762;52.490;13.410;2023-12-04T13:23:54;7.40;79.80
19256;DHT22;9762;52.490;13.410;2023-12-04T13:26:19;7.50;80.00
19256;DHT22;9762;52.490;13.410;2023-12-04T13:28:45;7.50;80.10
19256;DHT22;9762;52.490;13.410;2023-12-04T13:31:12;7.50;80.30
19256;DHT22;9762;52.490;13.410;2023-12-04T13:33:38;7.60;80.50
19256;DHT22;9762;52.490;13.410;2023-12-04T13:36:04;7.60;80.20
19256;DHT22;9762;52.490;13.410;2023-12-04T13:38:30;7.50;80.20
19256;DHT22;9762;52.490;13.410;2023-12-04T13:40:56;7.60;80.40
19256;DHT22;9762;52.490;13.410;2023-12-04T13:43:28;7.50;80.50
19256;DHT22;9762;52.490;13.410;2023-12-04T13:46:12;7.50;80.60
19256;DHT22;9762;52.490;13.410;2023-12-04T13:48:37;7.50;80.50
19256;DHT22;9762;52.490;13.410;2023-12-04T13:51:10;7.50;80.40
19256;DHT22;9762;52.490;13.410;2023-12-04T13:53:37;7.50;80.50
19256;DHT22;9762;52.490;13.410;2023-12-04T13:56:11;7.50;80.50
19256;DHT22;9762;52.490;13.410;2023-12-04T13:58:49;7.40;80.20
19256;DHT22;9762;52.490;13.410;2023-12-04T14:01:24;7.40;80.00
19256;DHT22;9762;52.490;13.410;2023-12-04T14:03:52;7.40;80.20
19256;DHT22;9762;52.490;13.410;2023-12-04T14:06:18;7.40;80.30
19256;DHT22;9762;52.490;13.410;2023-12-04T14:08:44;7.40;80.40
19256;DHT22;9762;52.490;13.410;2023-12-04T14:11:11;7.40;80.70
19256;DHT22;9762;52.490;13.410;2023-12-04T14:13:37;7.40;80.40
19256;DHT22;9762;52.490;13.410;2023-12-04T14:16:04;7.40;80.60
19256;DHT22;9762;52.490;13.410;2023-12-04T14:18:30;7.40;80.30
19256;DHT22;9762;52.490;13.410;2023-12-04T14:20:56;7.30;80.60
19256;DHT22;9762;52.490;13.410;2023-12-04T14:23:23;7.30;80.70
19256;DHT22;9762;52.490;13.410;2023-12-04T14:25:49;7.30;80.30
19256;DHT22;9762;52.490;13.410;2023-12-04T14:28:14;7.30;80.60
19256;DHT22;9762;52.490;13.410;2023-12-04T14:30:40;7.30;80.50
19256;DHT22;9762;52.490;13.410;2023-12-04T14:33:06;7.20;80.70
19256;DHT22;9762;52.490;13.410;2023-12-04T14:35:32;7.30;80.90
19256;DHT22;9762;52.490;13.410;2023-12-04T14:37:58;7.30;80.80
19256;DHT22;9762;52.490;13.410;2023-12-04T14:40:24;7.30;80.50
19256;DHT22;9762;52.490;13.410;2023-12-04T14:42:50;7.30;80.80
19256;DHT22;9762;52.490;13.410;2023-12-04T14:45:16;7.20;80.90
19256;DHT22;9762;52.490;13.410;2023-12-04T14:47:42;7.20;80.90
19256;DHT22;9762;52.490;13.410;2023-12-04T14:50:09;7.20;81.80
19256;DHT22;9762;52.490;13.410;2023-12-04T14:52:38;7.20;81.70
19256;DHT22;9762;52.490;13.410;2023-12-04T14:55:11;7.20;81.60
19256;DHT22;9762;52.490;13.410;2023-12-04T14:57:50;7.20;81.20
19256;DHT22;9762;52.490;13.410;2023-12-04T15:00:34;7.20;81.50
19256;DHT22;9762;52.490;13.410;2023-12-04T15:03:20;7.10;80.70
19256;DHT22;9762;52.490;13.410;2023-12-04T15:06:20;7.10;81.10
19256;DHT22;9762;52.490;13.410;2023-12-04T15:09:04;7.10;81.40
19256;DHT22;9762;52.490;13.410;2023-12-04T15:11:48;7.20;81.70
19256;DHT22;9762;52.490;13.410;2023-12-04T15:14:16;7.20;81.50
19256;DHT22;9762;52.490;13.410;2023-12-04T15:17:00;7.20;81.70
19256;DHT22;9762;52.490;13.410;2023-12-04T15:19:43;7.10;81.80
19256;DHT22;9762;52.490;13.410;2023-12-04T15:22:24;7.20;82.00
19256;DHT22;9762;52.490;13.410;2023-12-04T15:24:50;7.10;81.50
19256;DHT22;9762;52.490;13.410;2023-12-04T15:27:16;7.10;81.90
19256;DHT22;9762;52.490;13.410;2023-12-04T15:29:42;7.10;81.70
19256;DHT22;9762;52.490;13.410;2023-12-04T15:32:08;7.10;81.80
19256;DHT22;9762;52.490;13.410;2023-12-04T15:34:33;7.10;82.10
19256;DHT22;9762;52.490;13.410;2023-12-04T15:36:59;7.10;82.30
19256;DHT22;9762;52.490;13.410;2023-12-04T15:39:24;7.10;82.30
19256;DHT22;9762;52.490;13.410;2023-12-04T15:41:50;7.10;81.90
19256;DHT22;9762;52.490;13.410;2023-12-04T15:44:16;7.10;81.30
19256;DHT22;9762;52.490;13.410;2023-12-04T15:46:41;7.10;82.50
19256;DHT22;9762;52.490;13.410;2023-12-04T15:49:07;7.10;81.30